createdAt,value
2019-04-10T00:00:45.945Z,40.63
2019-04-10T00:03:25.793Z,42.30
2019-04-10T00:05:47.857Z,40.03
2019-04-10T00:08:17.861Z,37.73
2019-04-10T00:10:47.855Z,39.67
2019-04-10T00:13:18.431Z,39.67
2019-04-10T00:15:48.612Z,42.03
2019-04-10T00:18:18.013Z,42.77
2019-04-10T00:20:47.043Z,41.50
2019-04-10T00:23:17.309Z,38.53
2019-04-10T00:25:46.286Z,39.33
2019-04-10T00:28:15.722Z,42.63
2019-04-10T00:30:45.113Z,41.50
2019-04-10T00:33:14.922Z,39.13
2019-04-10T00:35:43.875Z,41.07
2019-04-10T00:38:13.604Z,38.57
2019-04-10T00:40:43.730Z,41.40
2019-04-10T00:43:13.387Z,33.17
2019-04-10T00:45:44.033Z,39.93
2019-04-10T00:48:12.934Z,42.17
2019-04-10T00:50:42.530Z,43.43
2019-04-10T00:53:11.406Z,42.13
2019-04-10T00:55:40.790Z,42.90
2019-04-10T00:58:10.083Z,40.17
2019-04-10T01:00:39.496Z,41.67
2019-04-10T01:03:09.361Z,42.57
2019-04-10T01:05:39.637Z,49.53
2019-04-10T01:08:08.937Z,39.87
2019-04-10T01:10:38.767Z,42.27
2019-04-10T01:13:08.354Z,40.07
2019-04-10T01:15:38.499Z,41.97
2019-04-10T01:18:07.443Z,42.10
2019-04-10T01:20:36.270Z,36.60
2019-04-10T01:23:05.846Z,45.33
2019-04-10T01:25:34.758Z,42.47
2019-04-10T01:28:04.666Z,44.80
2019-04-10T01:30:34.805Z,50.77
2019-04-10T01:33:04.391Z,49.20
2019-04-10T01:35:34.231Z,46.93
2019-04-10T01:38:05.846Z,44.43
2019-04-10T01:40:35.074Z,43.60
2019-04-10T01:43:09.889Z,44.40
2019-04-10T01:45:35.661Z,46.63
2019-04-10T01:48:05.787Z,47.27
2019-04-10T01:50:34.880Z,55.23
2019-04-10T01:53:03.817Z,51.17
2019-04-10T01:55:34.092Z,50.33
2019-04-10T01:58:05.378Z,50.70
2019-04-10T02:00:35.499Z,53.83
2019-04-10T02:03:05.525Z,47.43
2019-04-10T02:05:34.553Z,61.90
2019-04-10T02:08:09.123Z,57.57
2019-04-10T02:10:36.321Z,60.27
2019-04-10T02:13:07.329Z,55.93
2019-04-10T02:15:36.721Z,51.40
2019-04-10T02:18:05.915Z,63.97
2019-04-10T02:20:35.578Z,61.63
2019-04-10T02:23:04.482Z,67.30
2019-04-10T02:25:33.786Z,66.07
2019-04-10T02:28:03.227Z,65.53
2019-04-10T02:30:33.008Z,69.03
2019-04-10T02:33:04.319Z,70.03
2019-04-10T02:35:34.008Z,69.23
2019-04-10T02:38:22.283Z,72.53
2019-04-10T02:40:34.917Z,71.20
2019-04-10T02:43:05.737Z,70.57
2019-04-10T02:45:36.305Z,72.90
2019-04-10T02:48:06.121Z,78.17
2019-04-10T02:50:37.196Z,76.10
2019-04-10T02:53:07.764Z,79.53
2019-04-10T02:55:38.567Z,78.23
2019-04-10T02:58:09.569Z,77.17
2019-04-10T03:00:38.633Z,82.47
2019-04-10T03:03:07.918Z,77.10
2019-04-10T03:05:38.334Z,79.07
2019-04-10T03:08:08.951Z,88.97
2019-04-10T03:10:44.475Z,77.40
2019-04-10T03:13:11.476Z,71.27
2019-04-10T03:15:40.983Z,77.40
2019-04-10T03:18:09.898Z,79.87
2019-04-10T03:20:39.024Z,74.83
2019-04-10T03:23:07.919Z,79.23
2019-04-10T03:25:37.217Z,70.03
2019-04-10T03:28:07.122Z,63.37
2019-04-10T03:30:38.774Z,73.00
2019-04-10T03:33:26.581Z,74.80
2019-04-10T03:35:53.246Z,70.87
2019-04-10T03:38:22.136Z,66.67
2019-04-10T03:40:51.459Z,67.23
2019-04-10T03:43:21.574Z,65.80
2019-04-10T03:45:51.043Z,76.13
2019-04-10T03:48:20.222Z,65.63
2019-04-10T03:50:50.146Z,66.33
2019-04-10T03:53:20.281Z,59.87
2019-04-10T03:55:50.626Z,61.33
2019-04-10T03:58:20.378Z,47.73
2019-04-10T04:00:50.551Z,49.87
2019-04-10T04:03:20.400Z,52.20
2019-04-10T04:05:50.974Z,50.93
2019-04-10T04:08:21.459Z,44.40
2019-04-10T04:10:51.262Z,44.17
2019-04-10T04:13:20.136Z,44.13
2019-04-10T04:15:48.954Z,39.03
2019-04-10T04:18:19.195Z,37.40
2019-04-10T04:20:48.991Z,33.40
2019-04-10T04:23:19.317Z,34.73
2019-04-10T04:25:48.428Z,36.97
2019-04-10T04:28:17.268Z,36.03
2019-04-10T04:30:46.160Z,42.10
2019-04-10T04:33:15.470Z,38.00
2019-04-10T04:35:44.503Z,42.87
2019-04-10T04:38:14.166Z,41.53
2019-04-10T04:40:44.155Z,47.67
2019-04-10T04:43:13.191Z,49.53
2019-04-10T04:45:42.346Z,50.57
2019-04-10T04:48:11.597Z,51.40
2019-04-10T04:50:41.599Z,55.07
2019-04-10T04:53:10.789Z,53.20
2019-04-10T04:55:40.118Z,54.63
2019-04-10T04:58:09.703Z,52.90
2019-04-10T05:00:39.647Z,63.07
2019-04-10T05:03:08.489Z,59.40
2019-04-10T05:05:37.304Z,59.27
2019-04-10T05:08:07.341Z,61.67
2019-04-10T05:10:37.722Z,67.17
2019-04-10T05:13:06.774Z,64.10
2019-04-10T05:15:37.294Z,64.60
2019-04-10T05:18:06.403Z,61.90
2019-04-10T05:20:43.876Z,62.13
2019-04-10T05:23:08.152Z,58.77
2019-04-10T05:25:37.799Z,65.80
2019-04-10T05:28:07.784Z,68.27
2019-04-10T05:30:37.767Z,69.37
2019-04-10T05:33:08.226Z,69.40
2019-04-10T05:35:37.346Z,73.27
2019-04-10T05:38:06.502Z,85.80
2019-04-10T05:40:36.602Z,88.30
2019-04-10T05:43:05.937Z,82.30
2019-04-10T05:45:35.149Z,91.23
2019-04-10T05:48:04.562Z,89.60
2019-04-10T05:50:34.193Z,88.30
2019-04-10T05:53:04.390Z,81.87
2019-04-10T05:55:34.634Z,80.97
2019-04-10T05:58:03.509Z,82.83
2019-04-10T06:00:33.047Z,86.77
2019-04-10T06:03:02.275Z,84.33
2019-04-10T06:05:32.199Z,86.50
2019-04-10T06:08:01.632Z,87.47
2019-04-10T06:10:32.131Z,82.67
2019-04-10T06:13:02.528Z,84.53
2019-04-10T06:15:31.824Z,86.60
2019-04-10T06:18:01.298Z,88.73
2019-04-10T06:20:31.318Z,87.63
2019-04-10T06:23:01.298Z,86.63
2019-04-10T06:25:31.665Z,83.03
2019-04-10T06:28:01.723Z,81.37
2019-04-10T06:30:32.151Z,88.80
2019-04-10T06:33:02.134Z,74.53
2019-04-10T06:35:32.184Z,72.07
2019-04-10T06:38:02.354Z,83.03
2019-04-10T06:40:31.755Z,77.47
2019-04-10T06:43:01.055Z,80.23
2019-04-10T06:45:31.474Z,76.13
2019-04-10T06:48:02.640Z,73.73
2019-04-10T06:50:32.318Z,79.10
2019-04-10T06:53:01.972Z,77.03
2019-04-10T06:55:32.158Z,83.23
2019-04-10T06:58:02.615Z,78.27
2019-04-10T07:00:32.728Z,79.50
2019-04-10T07:03:03.102Z,74.70
2019-04-10T07:05:40.813Z,74.57
2019-04-10T07:08:12.517Z,63.40
2019-04-10T07:10:45.924Z,75.37
2019-04-10T07:13:07.728Z,74.87
2019-04-10T07:15:35.842Z,75.03
2019-04-10T07:18:05.203Z,74.77
2019-04-10T07:20:34.167Z,75.53
2019-04-10T07:23:04.922Z,79.03
2019-04-10T07:25:35.357Z,77.87
2019-04-10T07:28:07.508Z,78.63
2019-04-10T07:30:35.978Z,84.10
2019-04-10T07:33:05.530Z,80.97
2019-04-10T07:35:35.780Z,73.77
2019-04-10T07:38:05.742Z,77.57
2019-04-10T07:40:36.814Z,73.60
2019-04-10T07:43:06.298Z,73.23
2019-04-10T07:45:35.982Z,77.87
2019-04-10T07:48:06.520Z,74.00
2019-04-10T07:50:37.037Z,77.37
2019-04-10T07:53:06.339Z,74.60
2019-04-10T07:55:37.301Z,69.50
2019-04-10T07:58:06.909Z,70.37
2019-04-10T08:00:36.645Z,83.77
2019-04-10T08:03:06.348Z,75.47
2019-04-10T08:05:35.835Z,77.73
2019-04-10T08:08:05.217Z,74.17
2019-04-10T08:10:34.852Z,72.13
2019-04-10T08:13:04.579Z,77.33
2019-04-10T08:15:34.383Z,76.13
2019-04-10T08:18:04.548Z,82.20
2019-04-10T08:20:34.652Z,89.33
2019-04-10T08:23:04.299Z,89.60
2019-04-10T08:25:33.522Z,81.80
2019-04-10T08:28:02.837Z,90.27
2019-04-10T08:30:32.315Z,89.37
2019-04-10T08:33:03.240Z,87.17
2019-04-10T08:35:33.592Z,83.63
2019-04-10T08:38:03.381Z,87.00
2019-04-10T08:40:32.758Z,81.57
2019-04-10T08:43:02.139Z,90.47
2019-04-10T08:45:40.575Z,89.60
2019-04-10T08:48:02.263Z,87.37
2019-04-10T08:50:32.291Z,92.20
2019-04-10T08:53:02.157Z,83.70
2019-04-10T08:55:32.294Z,90.20
2019-04-10T08:58:02.729Z,82.40
2019-04-10T09:00:32.922Z,83.57
2019-04-10T09:03:02.442Z,86.80
2019-04-10T09:05:31.900Z,90.43
2019-04-10T09:08:02.385Z,78.03
2019-04-10T09:10:32.332Z,79.03
2019-04-10T09:13:01.460Z,82.53
2019-04-10T09:15:31.933Z,75.47
2019-04-10T09:18:01.986Z,74.10
2019-04-10T09:20:31.414Z,70.80
2019-04-10T09:23:19.962Z,75.67
2019-04-10T09:25:31.426Z,76.00
2019-04-10T09:28:02.176Z,76.93
2019-04-10T09:30:33.826Z,78.93
2019-04-10T09:33:15.739Z,70.57
2019-04-10T09:35:34.030Z,71.83
2019-04-10T09:38:02.864Z,76.07
2019-04-10T09:40:32.591Z,80.90
2019-04-10T09:43:02.648Z,75.27
2019-04-10T09:45:32.138Z,77.20
2019-04-10T09:48:01.696Z,76.00
2019-04-10T09:50:31.079Z,85.40
2019-04-10T09:53:00.568Z,79.07
2019-04-10T09:55:29.859Z,76.57
2019-04-10T09:58:00.160Z,70.50
2019-04-10T10:00:31.848Z,68.33
2019-04-10T10:03:01.520Z,79.87
2019-04-10T10:05:30.870Z,77.60
2019-04-10T10:08:00.454Z,71.47
2019-04-10T10:10:31.141Z,69.83
2019-04-10T10:13:01.480Z,64.17
2019-04-10T10:15:31.409Z,65.63
2019-04-10T10:18:01.327Z,72.67
2019-04-10T10:20:30.766Z,68.00
2019-04-10T10:23:01.331Z,69.93
2019-04-10T10:25:31.263Z,73.83
2019-04-10T10:28:01.109Z,70.27
2019-04-10T10:30:31.430Z,71.37
2019-04-10T10:33:01.459Z,70.93
2019-04-10T10:35:31.363Z,61.60
2019-04-10T10:38:01.107Z,65.40
2019-04-10T10:40:30.175Z,68.53
2019-04-10T10:43:00.312Z,71.57
2019-04-10T10:45:29.565Z,68.53
2019-04-10T10:47:58.770Z,71.40
2019-04-10T10:50:28.918Z,73.70
2019-04-10T10:52:59.769Z,71.33
2019-04-10T10:55:29.724Z,73.23
2019-04-10T10:57:59.708Z,75.37
2019-04-10T11:00:29.439Z,75.50
2019-04-10T11:02:58.415Z,75.97
2019-04-10T11:05:27.490Z,73.03
2019-04-10T11:07:57.329Z,75.33
2019-04-10T11:10:27.585Z,76.53
2019-04-10T11:12:56.577Z,78.40
2019-04-10T11:15:26.101Z,81.73
2019-04-10T11:17:56.142Z,76.17
2019-04-10T11:20:25.691Z,78.40
2019-04-10T11:22:55.838Z,80.27
2019-04-10T11:25:26.112Z,78.17
2019-04-10T11:27:56.532Z,79.33
2019-04-10T11:30:26.831Z,79.90
2019-04-10T11:32:56.310Z,79.57
2019-04-10T11:35:26.548Z,83.70
2019-04-10T11:37:59.053Z,92.93
2019-04-10T11:40:27.883Z,79.53
2019-04-10T11:42:59.637Z,80.93
2019-04-10T11:45:34.801Z,75.50
2019-04-10T11:48:02.293Z,79.27
2019-04-10T11:50:32.195Z,77.47
2019-04-10T11:53:02.608Z,80.20
2019-04-10T11:55:42.476Z,85.53
2019-04-10T11:58:03.083Z,80.87
2019-04-10T12:00:47.493Z,74.30
2019-04-10T12:03:12.811Z,75.80
2019-04-10T12:05:42.570Z,72.97
2019-04-10T12:13:16.972Z,70.27
2019-04-10T12:15:45.339Z,72.27
2019-04-10T12:18:14.423Z,70.17
2019-04-10T12:20:43.710Z,70.63
2019-04-10T12:23:13.050Z,71.70
2019-04-10T12:25:42.979Z,77.07
2019-04-10T12:28:13.749Z,78.43
2019-04-10T12:30:43.631Z,71.13
2019-04-10T12:33:13.631Z,76.80
2019-04-10T12:35:42.912Z,69.10
2019-04-10T12:38:13.305Z,70.80
2019-04-10T12:40:42.789Z,67.83
2019-04-10T12:43:12.680Z,68.60
2019-04-10T12:45:42.074Z,69.40
2019-04-10T12:48:12.527Z,77.40
2019-04-10T12:50:41.506Z,71.87
2019-04-10T12:53:11.551Z,77.93
2019-04-10T12:55:41.768Z,71.87
2019-04-10T12:58:15.520Z,70.33
2019-04-10T13:00:42.901Z,69.80
2019-04-10T13:03:12.299Z,72.10
2019-04-10T13:05:42.955Z,71.97
2019-04-10T13:08:21.142Z,71.17
2019-04-10T13:10:45.519Z,71.27
2019-04-10T13:13:15.173Z,71.23
2019-04-10T13:15:43.998Z,68.23
2019-04-10T13:18:14.252Z,68.57
2019-04-10T13:20:44.150Z,70.77
2019-04-10T13:23:14.849Z,70.87
2019-04-10T13:25:54.949Z,77.00
2019-04-10T13:28:15.155Z,76.47
2019-04-10T13:30:51.575Z,76.93
2019-04-10T13:33:16.245Z,82.43
2019-04-10T13:35:46.257Z,78.67
2019-04-10T13:38:24.110Z,71.17
2019-04-10T13:40:48.143Z,73.97
2019-04-10T13:43:18.016Z,75.40
2019-04-10T13:45:47.069Z,73.70
2019-04-10T13:48:16.576Z,80.33
2019-04-10T13:50:46.614Z,71.30
2019-04-10T13:53:16.250Z,74.70
2019-04-10T13:55:45.433Z,75.97
2019-04-10T13:58:15.097Z,73.77
2019-04-10T14:00:45.096Z,69.93
2019-04-10T14:03:16.354Z,67.53
2019-04-10T14:05:46.630Z,71.70
2019-04-10T14:08:17.030Z,79.73
2019-04-10T14:10:46.838Z,78.53
2019-04-10T14:13:16.367Z,76.47
2019-04-10T14:15:46.359Z,74.63
2019-04-10T14:18:16.652Z,75.93
2019-04-10T14:20:45.748Z,72.60
2019-04-10T14:23:27.149Z,72.37
2019-04-10T14:26:18.851Z,74.60
2019-04-10T14:28:49.426Z,76.00
2019-04-10T14:31:24.619Z,78.47
2019-04-10T14:33:53.615Z,74.07
2019-04-10T14:36:22.930Z,80.43
2019-04-10T14:38:52.747Z,73.30
2019-04-10T14:41:24.671Z,80.60
2019-04-10T14:43:53.657Z,77.47
2019-04-10T14:46:24.160Z,73.37
2019-04-10T14:48:54.268Z,79.33
2019-04-10T14:51:24.186Z,77.43
2019-04-10T14:53:53.588Z,74.73
2019-04-10T14:56:24.132Z,76.57
2019-04-10T14:58:53.339Z,79.77
2019-04-10T15:01:22.273Z,84.20
2019-04-10T15:03:51.553Z,81.97
2019-04-10T15:06:21.972Z,80.70
2019-04-10T15:08:52.262Z,82.30
2019-04-10T15:11:22.441Z,85.23
2019-04-10T15:13:52.135Z,79.13
2019-04-10T15:16:21.130Z,74.80
2019-04-10T15:18:50.219Z,83.97
2019-04-10T15:21:20.714Z,88.27
2019-04-10T15:23:51.077Z,76.43
2019-04-10T15:26:20.474Z,80.10
2019-04-10T15:28:49.979Z,88.00
2019-04-10T15:31:19.634Z,79.17
2019-04-10T15:33:49.610Z,82.93
2019-04-10T15:36:20.000Z,87.07
2019-04-10T15:38:48.858Z,81.80
2019-04-10T15:41:18.954Z,79.10
2019-04-10T15:43:47.955Z,76.07
2019-04-10T15:46:17.741Z,75.17
2019-04-10T15:48:47.099Z,73.97
2019-04-10T15:51:16.343Z,76.07
2019-04-10T15:53:45.422Z,68.30
2019-04-10T15:56:15.801Z,76.80
2019-04-10T15:58:45.816Z,73.30
2019-04-10T16:01:18.152Z,70.47
2019-04-10T16:03:47.530Z,74.27
2019-04-10T16:06:17.480Z,71.87
2019-04-10T16:08:48.188Z,72.60
2019-04-10T16:11:36.113Z,148.17
2019-04-10T16:14:16.955Z,76.87
2019-04-10T16:16:54.951Z,107.23
2019-04-10T16:19:39.394Z,90.50
2019-04-10T16:22:27.819Z,73.87
2019-04-10T16:24:59.674Z,76.03
2019-04-10T16:27:28.982Z,77.20
2019-04-10T16:29:59.495Z,73.20
2019-04-10T16:32:29.842Z,78.27
2019-04-10T16:34:59.362Z,76.27
2019-04-10T16:37:28.566Z,80.77
2019-04-10T16:40:03.609Z,81.37
2019-04-10T16:42:30.649Z,81.70
2019-04-10T16:44:59.878Z,81.10
2019-04-10T16:47:30.305Z,81.33
2019-04-10T16:49:59.313Z,82.30
2019-04-10T16:52:29.229Z,77.60
2019-04-10T16:54:59.769Z,82.87
2019-04-10T16:57:29.109Z,81.03
2019-04-10T16:59:59.147Z,77.33
2019-04-10T17:02:29.023Z,82.97
2019-04-10T17:04:58.594Z,79.70
2019-04-10T17:07:27.975Z,78.10
2019-04-10T17:10:04.481Z,81.33
2019-04-10T17:12:29.536Z,71.87
2019-04-10T17:14:59.599Z,77.03
2019-04-10T17:17:28.706Z,74.27
2019-04-10T17:19:59.469Z,71.23
2019-04-10T17:22:37.128Z,70.93
2019-04-10T17:25:02.092Z,68.70
2019-04-10T17:27:35.339Z,71.67
2019-04-10T17:30:05.390Z,71.87
2019-04-10T17:32:34.748Z,65.30
2019-04-10T17:35:05.253Z,66.27
2019-04-10T17:37:35.921Z,68.70
2019-04-10T17:40:08.146Z,66.43
2019-04-10T17:42:38.162Z,65.00
2019-04-10T17:45:08.106Z,65.07
2019-04-10T17:47:38.799Z,54.17
2019-04-10T17:50:10.136Z,51.40
2019-04-10T17:52:40.713Z,48.60
2019-04-10T17:55:11.436Z,51.23
2019-04-10T17:57:43.369Z,55.70
2019-04-10T18:00:25.446Z,59.70
2019-04-10T18:02:55.121Z,55.07
2019-04-10T18:05:24.854Z,49.73
2019-04-10T18:07:54.594Z,59.37
2019-04-10T18:10:24.718Z,58.33
2019-04-10T18:12:54.734Z,56.07
2019-04-10T18:15:24.186Z,57.83
2019-04-10T18:17:53.451Z,66.07
2019-04-10T18:20:24.189Z,58.13
2019-04-10T18:22:53.640Z,73.23
2019-04-10T18:25:22.866Z,72.27
2019-04-10T18:27:52.480Z,66.00
2019-04-10T18:30:21.990Z,60.53
2019-04-10T18:32:51.475Z,52.07
2019-04-10T18:35:21.283Z,50.57
2019-04-10T18:37:50.166Z,46.07
2019-04-10T18:40:19.489Z,47.37
2019-04-10T18:42:48.810Z,44.47
2019-04-10T18:45:18.078Z,53.10
2019-04-10T18:47:47.409Z,82.03
2019-04-10T18:50:18.186Z,60.17
2019-04-10T18:52:47.754Z,49.17
2019-04-10T18:55:16.595Z,43.73
2019-04-10T18:57:45.410Z,43.23
2019-04-10T19:00:40.813Z,42.03
2019-04-10T19:03:27.673Z,46.07
2019-04-10T19:06:00.404Z,44.13
2019-04-10T19:08:30.100Z,42.63
2019-04-10T19:11:13.096Z,43.73
2019-04-10T19:13:30.817Z,44.83
2019-04-10T19:15:59.702Z,43.23
2019-04-10T19:18:29.815Z,43.40
2019-04-10T19:21:00.245Z,41.83
2019-04-10T19:23:29.206Z,46.93
2019-04-10T19:25:58.915Z,43.43
2019-04-10T19:28:35.074Z,44.17
2019-04-10T19:31:12.849Z,49.93
2019-04-10T19:33:33.264Z,46.30
2019-04-10T19:36:03.307Z,43.17
2019-04-10T19:38:33.549Z,46.77
2019-04-10T19:41:02.691Z,44.13
2019-04-10T19:43:33.151Z,47.63
2019-04-10T19:46:04.103Z,39.83
2019-04-10T19:48:35.148Z,39.57
2019-04-10T19:51:05.727Z,38.50
2019-04-10T19:53:35.307Z,41.63
2019-04-10T19:56:04.962Z,43.10
2019-04-10T19:58:35.072Z,43.67
2019-04-10T20:01:06.286Z,38.53
2019-04-10T20:03:35.655Z,46.20
2019-04-10T20:06:05.955Z,41.73
2019-04-10T20:08:35.692Z,45.43
2019-04-10T20:11:05.314Z,55.37
2019-04-10T20:13:34.870Z,52.63
2019-04-10T20:16:04.358Z,49.47
2019-04-10T20:18:34.920Z,49.03
2019-04-10T20:21:04.108Z,44.63
2019-04-10T20:23:34.021Z,42.33
2019-04-10T20:26:03.317Z,46.07
2019-04-10T20:28:33.099Z,42.70
2019-04-10T20:31:02.509Z,54.53
2019-04-10T20:33:32.654Z,44.73
2019-04-10T20:36:02.071Z,48.10
2019-04-10T20:38:32.360Z,48.67
2019-04-10T20:41:02.669Z,49.73
2019-04-10T20:43:32.668Z,49.17
2019-04-10T20:46:05.063Z,54.80
2019-04-10T20:48:34.283Z,44.23
2019-04-10T20:51:04.078Z,43.37
2019-04-10T20:53:33.784Z,43.20
2019-04-10T20:56:03.443Z,45.10
2019-04-10T20:58:34.001Z,45.53
2019-04-10T21:01:03.646Z,47.67
2019-04-10T21:03:33.840Z,41.77
2019-04-10T21:06:02.806Z,43.33
2019-04-10T21:08:32.020Z,43.50
2019-04-10T21:11:01.747Z,51.53
2019-04-10T21:13:31.837Z,45.60
2019-04-10T21:16:00.798Z,45.00
2019-04-10T21:18:29.938Z,45.33
2019-04-10T21:20:59.589Z,43.90
2019-04-10T21:23:29.531Z,40.40
2019-04-10T21:25:59.463Z,46.73
2019-04-10T21:28:28.743Z,50.10
2019-04-10T21:31:15.964Z,46.67
2019-04-10T21:34:03.414Z,44.33
2019-04-10T21:36:34.939Z,41.50
2019-04-10T21:39:05.579Z,45.47
2019-04-10T21:41:35.190Z,41.97
2019-04-10T21:44:04.798Z,38.37
2019-04-10T21:46:34.641Z,41.47
2019-04-10T21:49:03.725Z,39.07
2019-04-10T21:51:33.452Z,43.23
2019-04-10T21:54:02.714Z,41.70
2019-04-10T21:56:33.035Z,41.23
2019-04-10T21:59:03.220Z,40.77
2019-04-10T22:01:32.585Z,43.73
2019-04-10T22:04:02.762Z,41.67
2019-04-10T22:06:49.799Z,40.83
2019-04-10T22:09:45.209Z,43.73
2019-04-10T22:12:29.807Z,43.23
2019-04-10T22:14:52.631Z,46.10
2019-04-10T22:17:22.641Z,49.00
2019-04-10T22:19:52.778Z,45.60
2019-04-10T22:22:22.469Z,44.13
2019-04-10T22:24:52.653Z,47.07
2019-04-10T22:27:21.626Z,47.70
2019-04-10T22:29:52.159Z,49.33
2019-04-10T22:32:22.700Z,46.63
2019-04-10T22:34:52.790Z,50.10
2019-04-10T22:37:22.098Z,52.27
2019-04-10T22:39:52.226Z,51.63
2019-04-10T22:42:33.941Z,52.90
2019-04-10T22:44:52.561Z,51.40
2019-04-10T22:47:21.405Z,55.83
2019-04-10T22:49:51.440Z,53.87
2019-04-10T22:52:20.776Z,55.17
2019-04-10T22:54:50.874Z,63.43
2019-04-10T22:57:21.046Z,56.90
2019-04-10T22:59:51.167Z,54.27
2019-04-10T23:02:21.398Z,57.23
2019-04-10T23:04:51.298Z,61.67
2019-04-10T23:07:20.542Z,61.03
2019-04-10T23:09:50.642Z,63.03
2019-04-10T23:12:20.353Z,60.70
2019-04-10T23:14:49.331Z,60.63
2019-04-10T23:17:18.942Z,61.00
2019-04-10T23:19:47.931Z,62.37
2019-04-10T23:22:17.370Z,58.13
2019-04-10T23:24:47.604Z,53.47
2019-04-10T23:27:17.723Z,64.03
2019-04-10T23:29:47.049Z,57.70
2019-04-10T23:32:17.243Z,55.33
2019-04-10T23:34:47.178Z,66.07
2019-04-10T23:37:16.350Z,50.13
2019-04-10T23:39:46.177Z,49.13
2019-04-10T23:42:15.349Z,43.60
2019-04-10T23:44:44.927Z,41.70
2019-04-10T23:47:13.922Z,40.57
2019-04-10T23:49:43.753Z,43.70
2019-04-10T23:52:13.724Z,40.20
2019-04-10T23:54:43.640Z,42.97
2019-04-10T23:57:13.508Z,33.73
2019-04-10T23:59:42.706Z,36.47
